createdAt,value
2022-08-03T00:01:32.310Z,6.87
2022-08-03T00:03:59.564Z,9.60
2022-08-03T00:06:26.482Z,6.20
2022-08-03T00:08:53.321Z,9.70
2022-08-03T00:11:20.477Z,9.43
2022-08-03T00:13:47.720Z,8.90
2022-08-03T00:16:15.043Z,8.27
2022-08-03T00:18:42.302Z,10.30
2022-08-03T00:21:09.681Z,9.68
2022-08-03T00:23:52.226Z,11.30
2022-08-03T00:26:21.597Z,8.17
2022-08-03T00:28:49.797Z,15.35
2022-08-03T00:31:23.043Z,7.60
2022-08-03T00:34:04.737Z,9.20
2022-08-03T00:36:33.104Z,8.35
2022-08-03T00:39:00.123Z,12.10
2022-08-03T00:41:27.272Z,11.70
2022-08-03T00:43:54.249Z,11.35
2022-08-03T00:46:22.633Z,11.15
2022-08-03T00:48:54.212Z,8.18
2022-08-03T00:51:22.423Z,9.57
2022-08-03T00:53:49.951Z,10.02
2022-08-03T00:56:18.128Z,8.35
2022-08-03T00:58:46.401Z,14.73
2022-08-03T01:01:13.806Z,16.13
2022-08-03T01:03:41.438Z,11.93
2022-08-03T01:06:18.480Z,11.20
2022-08-03T01:09:00.764Z,10.27
2022-08-03T01:12:01.906Z,12.02
2022-08-03T01:15:00.557Z,12.55
2022-08-03T01:17:48.424Z,7.83
2022-08-03T01:20:17.302Z,9.07
2022-08-03T01:23:05.721Z,6.53
2022-08-03T01:26:06.210Z,11.02
2022-08-03T01:28:54.978Z,7.68
2022-08-03T01:31:27.467Z,10.83
2022-08-03T01:34:00.425Z,10.80
2022-08-03T01:36:35.545Z,12.57
2022-08-03T01:39:09.352Z,11.88
2022-08-03T01:41:42.591Z,10.40
2022-08-03T01:44:29.417Z,14.17
2022-08-03T01:47:02.424Z,8.80
2022-08-03T01:49:32.460Z,12.10
2022-08-03T01:52:03.832Z,11.00
2022-08-03T01:54:36.306Z,13.05
2022-08-03T01:57:03.904Z,6.97
2022-08-03T01:59:35.816Z,12.88
2022-08-03T02:02:15.995Z,8.23
2022-08-03T02:04:55.191Z,17.95
2022-08-03T02:07:23.873Z,15.27
2022-08-03T02:09:52.894Z,8.77
2022-08-03T02:12:22.103Z,13.13
2022-08-03T02:14:50.464Z,8.48
2022-08-03T02:17:19.109Z,8.80
2022-08-03T02:20:08.592Z,14.98
2022-08-03T02:22:39.339Z,9.90
2022-08-03T02:25:11.155Z,20.15
2022-08-03T02:27:43.857Z,14.80
2022-08-03T02:30:12.684Z,16.48
2022-08-03T02:32:43.121Z,9.95
2022-08-03T02:35:13.464Z,8.63
2022-08-03T02:37:50.112Z,16.02
2022-08-03T02:40:23.514Z,15.52
2022-08-03T02:42:55.699Z,12.48
2022-08-03T02:45:26.417Z,12.98
2022-08-03T02:47:58.347Z,13.63
2022-08-03T02:50:27.823Z,17.17
2022-08-03T02:52:56.947Z,16.65
2022-08-03T02:55:25.414Z,17.65
2022-08-03T02:57:54.594Z,12.55
2022-08-03T03:00:28.261Z,14.57
2022-08-03T03:03:00.479Z,17.50
2022-08-03T03:05:52.563Z,11.82
2022-08-03T03:08:20.879Z,14.07
2022-08-03T03:10:56.066Z,16.63
2022-08-03T03:13:24.205Z,12.50
2022-08-03T03:15:52.735Z,11.38
2022-08-03T03:18:23.955Z,20.85
2022-08-03T03:20:53.510Z,15.98
2022-08-03T03:23:22.856Z,16.30
2022-08-03T03:25:50.509Z,17.40
2022-08-03T03:28:18.047Z,11.10
2022-08-03T03:30:45.182Z,13.70
2022-08-03T03:33:20.385Z,17.02
2022-08-03T03:35:47.483Z,18.58
2022-08-03T03:38:14.590Z,15.63
2022-08-03T03:40:42.217Z,14.82
2022-08-03T03:43:10.929Z,14.95
2022-08-03T03:45:40.803Z,12.18
2022-08-03T03:48:08.645Z,9.52
2022-08-03T03:50:37.575Z,13.73
2022-08-03T03:53:05.007Z,11.60
2022-08-03T03:55:59.627Z,16.92
2022-08-03T03:58:27.973Z,13.02
2022-08-03T04:00:55.213Z,12.32
2022-08-03T04:03:22.228Z,15.07
2022-08-03T04:06:07.956Z,22.15
2022-08-03T04:08:53.915Z,17.30
2022-08-03T04:11:31.789Z,11.25
2022-08-03T04:14:22.944Z,21.05
2022-08-03T04:16:55.146Z,12.03
2022-08-03T04:19:34.326Z,17.05
2022-08-03T04:22:05.960Z,18.13
2022-08-03T04:24:43.294Z,10.13
2022-08-03T04:27:12.953Z,16.80
2022-08-03T04:29:48.404Z,14.57
2022-08-03T04:32:16.876Z,17.98
2022-08-03T04:34:44.379Z,23.42
2022-08-03T04:37:35.597Z,16.30
2022-08-03T04:40:05.983Z,20.70
2022-08-03T04:42:34.595Z,19.57
2022-08-03T04:45:03.630Z,18.85
2022-08-03T04:47:33.634Z,14.25
2022-08-03T04:50:09.153Z,20.63
2022-08-03T04:52:39.442Z,15.90
2022-08-03T04:55:06.969Z,15.83
2022-08-03T04:57:33.968Z,18.80
2022-08-03T05:00:03.487Z,17.27
2022-08-03T05:02:32.222Z,15.00
2022-08-03T05:05:00.693Z,17.50
2022-08-03T05:07:35.628Z,21.37
2022-08-03T05:10:16.091Z,18.63
2022-08-03T05:12:45.592Z,16.40
2022-08-03T05:15:13.272Z,17.42
2022-08-03T05:17:40.456Z,12.43
2022-08-03T05:20:07.899Z,8.53
2022-08-03T05:22:35.142Z,18.90
2022-08-03T05:25:02.452Z,19.10
2022-08-03T05:27:29.964Z,23.60
2022-08-03T05:29:57.038Z,19.85
2022-08-03T05:32:44.097Z,16.33
2022-08-03T05:35:57.788Z,18.38
2022-08-03T05:37:58.098Z,16.25
2022-08-03T05:40:25.192Z,28.55
2022-08-03T05:42:54.127Z,22.33
2022-08-03T05:45:23.246Z,21.97
2022-08-03T05:47:53.742Z,20.10
2022-08-03T05:50:21.306Z,17.95
2022-08-03T05:52:48.499Z,17.60
2022-08-03T05:55:16.093Z,25.02
2022-08-03T05:57:43.759Z,21.23
2022-08-03T06:00:12.373Z,26.90
2022-08-03T06:02:40.327Z,17.02
2022-08-03T06:05:07.796Z,13.93
2022-08-03T06:07:34.971Z,19.45
2022-08-03T06:10:37.408Z,16.40
2022-08-03T06:12:51.780Z,25.30
2022-08-03T06:15:20.785Z,18.77
2022-08-03T06:17:49.064Z,21.50
2022-08-03T06:20:22.382Z,22.27
2022-08-03T06:23:00.325Z,20.23
2022-08-03T06:25:29.183Z,17.95
2022-08-03T06:27:56.535Z,24.10
2022-08-03T06:30:23.428Z,19.05
2022-08-03T06:32:52.086Z,19.55
2022-08-03T06:35:19.867Z,25.80
2022-08-03T06:37:49.551Z,26.70
2022-08-03T06:40:30.027Z,26.98
2022-08-03T06:42:58.983Z,18.65
2022-08-03T06:45:26.975Z,19.15
2022-08-03T06:48:08.022Z,22.20
2022-08-03T06:50:42.565Z,15.13
2022-08-03T06:53:19.269Z,20.48
2022-08-03T06:55:53.889Z,21.52
2022-08-03T06:58:21.798Z,22.65
2022-08-03T07:00:48.726Z,23.23
2022-08-03T07:03:16.162Z,18.17
2022-08-03T07:05:44.087Z,16.67
2022-08-03T07:08:10.998Z,16.63
2022-08-03T07:10:38.181Z,21.65
2022-08-03T07:13:05.605Z,24.97
2022-08-03T07:15:53.706Z,16.90
2022-08-03T07:18:29.331Z,30.40
2022-08-03T07:20:57.941Z,22.60
2022-08-03T07:23:25.777Z,16.42
2022-08-03T07:25:53.037Z,27.10
2022-08-03T07:28:20.657Z,20.58
2022-08-03T07:30:47.980Z,18.92
2022-08-03T07:33:15.375Z,18.98
2022-08-03T07:35:42.435Z,21.00
2022-08-03T07:38:09.460Z,22.33
2022-08-03T07:40:36.594Z,20.95
2022-08-03T07:43:03.885Z,21.33
2022-08-03T07:45:34.539Z,18.63
2022-08-03T07:48:01.459Z,27.73
2022-08-03T07:50:28.468Z,14.30
2022-08-03T07:52:56.233Z,22.08
2022-08-03T07:55:25.635Z,23.70
2022-08-03T07:58:12.493Z,17.02
2022-08-03T08:00:39.751Z,19.13
2022-08-03T08:03:06.947Z,19.17
2022-08-03T08:05:34.790Z,14.82
2022-08-03T08:08:03.156Z,23.25
2022-08-03T08:10:30.608Z,23.77
2022-08-03T08:12:57.771Z,16.38
2022-08-03T08:15:24.986Z,15.53
2022-08-03T08:17:54.698Z,30.73
2022-08-03T08:20:30.797Z,22.92
2022-08-03T08:23:01.388Z,20.17
2022-08-03T08:25:31.875Z,29.35
2022-08-03T08:28:31.597Z,32.50
2022-08-03T08:30:51.123Z,21.42
2022-08-03T08:33:23.009Z,25.88
2022-08-03T08:35:53.283Z,28.70
2022-08-03T08:38:20.528Z,22.23
2022-08-03T08:40:49.134Z,35.40
2022-08-03T08:43:16.317Z,17.85
2022-08-03T08:45:45.057Z,25.17
2022-08-03T08:48:14.009Z,19.45
2022-08-03T08:50:45.177Z,20.83
2022-08-03T08:53:17.387Z,20.97
2022-08-03T08:55:57.824Z,25.80
2022-08-03T08:58:36.879Z,23.20
2022-08-03T09:01:04.789Z,25.15
2022-08-03T09:03:34.285Z,23.95
2022-08-03T09:06:02.505Z,25.67
2022-08-03T09:08:31.173Z,27.20
2022-08-03T09:10:58.430Z,24.58
2022-08-03T09:13:25.791Z,18.95
2022-08-03T09:16:12.569Z,14.93
2022-08-03T09:18:40.422Z,18.57
2022-08-03T09:21:42.937Z,23.30
2022-08-03T09:24:20.656Z,23.63
2022-08-03T09:26:56.975Z,15.63
2022-08-03T09:29:24.022Z,16.55
2022-08-03T09:32:03.902Z,29.43
2022-08-03T09:34:31.074Z,23.83
2022-08-03T09:36:58.523Z,17.10
2022-08-03T09:39:41.191Z,17.73
2022-08-03T09:42:14.658Z,17.10
2022-08-03T09:44:50.983Z,39.23
2022-08-03T09:47:32.672Z,25.00
2022-08-03T09:50:08.754Z,14.55
2022-08-03T09:52:52.063Z,23.23
2022-08-03T09:56:33.495Z,31.08
2022-08-03T09:58:14.293Z,20.30
2022-08-03T10:00:55.133Z,17.85
2022-08-03T10:03:23.336Z,18.23
2022-08-03T10:05:50.319Z,19.10
2022-08-03T10:08:19.465Z,16.83
2022-08-03T10:10:48.557Z,23.73
2022-08-03T10:13:17.751Z,21.90
2022-08-03T10:16:23.719Z,19.73
2022-08-03T10:18:35.431Z,20.42
2022-08-03T10:21:05.178Z,18.48
2022-08-03T10:23:35.750Z,13.13
2022-08-03T10:26:05.503Z,18.10
2022-08-03T10:28:41.584Z,19.55
2022-08-03T10:31:13.074Z,17.88
2022-08-03T10:33:51.298Z,24.08
2022-08-03T10:36:23.751Z,16.47
2022-08-03T10:38:53.413Z,17.77
2022-08-03T10:41:21.892Z,15.35
2022-08-03T10:44:10.029Z,22.45
2022-08-03T10:46:44.571Z,22.80
2022-08-03T10:49:15.041Z,17.15
2022-08-03T10:51:44.509Z,20.70
2022-08-03T10:55:00.770Z,22.77
2022-08-03T10:57:50.162Z,14.98
2022-08-03T11:00:25.403Z,12.23
2022-08-03T11:03:14.628Z,18.50
2022-08-03T11:05:46.327Z,22.00
2022-08-03T11:08:26.736Z,14.83
2022-08-03T11:11:03.458Z,20.27
2022-08-03T11:13:33.498Z,17.75
2022-08-03T11:16:04.883Z,14.93
2022-08-03T11:18:33.849Z,14.18
2022-08-03T11:21:01.100Z,16.63
2022-08-03T11:24:04.082Z,18.85
2022-08-03T11:26:34.051Z,17.98
2022-08-03T11:29:30.396Z,18.00
2022-08-03T11:31:57.792Z,13.82
2022-08-03T11:34:25.026Z,16.83
2022-08-03T11:37:31.370Z,16.77
2022-08-03T11:40:02.337Z,11.60
2022-08-03T11:42:29.567Z,13.63
2022-08-03T11:44:58.355Z,15.90
2022-08-03T11:47:27.857Z,14.13
2022-08-03T11:49:59.258Z,16.47
2022-08-03T11:52:28.770Z,16.53
2022-08-03T11:54:56.855Z,13.25
2022-08-03T11:59:17.833Z,12.38
2022-08-03T12:00:25.990Z,15.82
2022-08-03T12:03:08.489Z,17.92
2022-08-03T12:05:41.263Z,15.27
2022-08-03T12:08:10.467Z,14.50
2022-08-03T12:10:39.257Z,13.75
2022-08-03T12:14:43.877Z,14.45
2022-08-03T12:15:59.416Z,19.02
2022-08-03T12:18:26.624Z,13.20
2022-08-03T12:21:03.226Z,16.40
2022-08-03T12:23:30.465Z,17.58
2022-08-03T12:26:05.901Z,12.50
2022-08-03T12:28:37.491Z,11.27
2022-08-03T12:31:07.845Z,12.53
2022-08-03T12:33:59.536Z,10.07
2022-08-03T12:36:27.477Z,18.77
2022-08-03T12:38:57.316Z,16.05
2022-08-03T12:41:29.756Z,12.40
2022-08-03T12:43:57.740Z,13.73
2022-08-03T12:46:31.037Z,13.17
2022-08-03T12:49:19.194Z,11.38
2022-08-03T12:51:46.274Z,16.20
2022-08-03T12:54:24.346Z,10.82
2022-08-03T12:57:04.262Z,9.63
2022-08-03T12:59:45.041Z,12.03
2022-08-03T13:02:25.095Z,13.05
2022-08-03T13:04:54.139Z,18.13
2022-08-03T13:07:22.257Z,12.55
2022-08-03T13:09:54.621Z,22.98
2022-08-03T13:12:23.775Z,15.50
2022-08-03T13:14:56.082Z,10.57
2022-08-03T13:17:23.230Z,8.68
2022-08-03T13:19:50.517Z,14.35
2022-08-03T13:22:25.891Z,16.15
2022-08-03T13:24:55.955Z,11.50
2022-08-03T13:28:03.721Z,12.53
2022-08-03T13:30:12.430Z,5.88
2022-08-03T13:32:39.471Z,9.18
2022-08-03T13:35:07.586Z,11.18
2022-08-03T13:37:35.233Z,5.72
2022-08-03T13:40:05.571Z,8.27
2022-08-03T13:42:34.670Z,15.23
2022-08-03T13:45:02.936Z,9.30
2022-08-03T13:47:29.952Z,17.40
2022-08-03T13:50:00.785Z,10.00
2022-08-03T13:52:31.678Z,7.37
2022-08-03T13:55:01.363Z,6.40
2022-08-03T13:58:04.085Z,10.02
2022-08-03T14:00:27.455Z,9.63
2022-08-03T14:03:12.597Z,12.52
2022-08-03T14:05:42.046Z,10.98
2022-08-03T14:08:09.254Z,11.27
2022-08-03T14:10:38.450Z,9.80
2022-08-03T14:13:06.818Z,5.72
2022-08-03T14:15:37.902Z,5.97
2022-08-03T14:18:15.774Z,8.98
2022-08-03T14:20:56.826Z,7.40
2022-08-03T14:23:25.726Z,11.70
2022-08-03T14:25:53.152Z,11.47
2022-08-03T14:28:24.276Z,8.48
2022-08-03T14:30:53.065Z,4.45
2022-08-03T14:33:20.690Z,8.52
2022-08-03T14:35:48.368Z,12.05
2022-08-03T14:38:15.583Z,7.13
2022-08-03T14:40:42.955Z,12.02
2022-08-03T14:43:09.813Z,11.13
2022-08-03T14:45:36.747Z,7.80
2022-08-03T14:50:29.395Z,8.05
2022-08-03T14:50:52.946Z,7.70
2022-08-03T14:53:20.097Z,6.23
2022-08-03T14:55:49.638Z,5.47
2022-08-03T14:58:20.757Z,12.70
2022-08-03T15:00:48.744Z,9.60
2022-08-03T15:03:16.940Z,15.90
2022-08-03T15:05:44.659Z,12.67
2022-08-03T15:08:11.564Z,9.87
2022-08-03T15:10:40.471Z,10.35
2022-08-03T15:13:12.568Z,8.23
2022-08-03T15:15:39.723Z,12.13
2022-08-03T15:18:09.969Z,10.68
2022-08-03T15:20:44.340Z,10.20
2022-08-03T15:23:17.065Z,13.65
2022-08-03T15:26:29.207Z,4.75
2022-08-03T15:28:32.784Z,7.60
2022-08-03T15:31:00.375Z,11.10
2022-08-03T15:33:27.768Z,12.60
2022-08-03T15:35:54.655Z,11.27
2022-08-03T15:38:25.773Z,9.52
2022-08-03T15:40:57.179Z,10.13
2022-08-03T15:43:24.855Z,8.70
2022-08-03T15:46:26.499Z,9.57
2022-08-03T15:48:39.589Z,7.50
2022-08-03T15:51:06.972Z,9.20
2022-08-03T15:53:33.931Z,12.38
2022-08-03T15:56:03.306Z,11.52
2022-08-03T15:59:03.435Z,13.05
2022-08-03T16:01:21.579Z,7.38
2022-08-03T16:03:48.558Z,8.13
2022-08-03T16:06:16.028Z,9.47
2022-08-03T16:08:42.863Z,10.45
2022-08-03T16:11:10.394Z,15.88
2022-08-03T16:14:13.325Z,9.68
2022-08-03T16:16:24.532Z,12.30
2022-08-03T16:18:51.441Z,11.23
2022-08-03T16:21:20.033Z,9.30
2022-08-03T16:23:48.920Z,11.57
2022-08-03T16:26:15.953Z,9.80
2022-08-03T16:28:42.914Z,9.40
2022-08-03T16:31:09.884Z,8.63
2022-08-03T16:33:36.926Z,7.77
2022-08-03T16:36:04.017Z,6.77
2022-08-03T16:38:31.337Z,10.30
2022-08-03T16:40:58.534Z,16.13
2022-08-03T16:43:25.620Z,7.75
2022-08-03T16:45:52.554Z,7.15
2022-08-03T16:48:19.592Z,7.27
2022-08-03T16:50:47.031Z,7.43
2022-08-03T16:53:16.310Z,8.88
2022-08-03T16:55:53.922Z,9.02
2022-08-03T16:58:41.494Z,10.52
2022-08-03T17:01:21.500Z,10.52
2022-08-03T17:04:01.272Z,7.80
2022-08-03T17:06:35.594Z,10.43
2022-08-03T17:09:08.845Z,9.10
2022-08-03T17:11:46.514Z,15.57
2022-08-03T17:14:22.096Z,7.75
2022-08-03T17:16:51.935Z,13.93
2022-08-03T17:19:23.198Z,11.80
2022-08-03T17:21:59.699Z,11.87
2022-08-03T17:24:35.605Z,10.68
2022-08-03T17:28:41.690Z,7.93
2022-08-03T17:30:02.884Z,8.02
2022-08-03T17:32:33.202Z,11.23
2022-08-03T17:35:01.385Z,8.13
2022-08-03T17:37:57.573Z,7.63
2022-08-03T17:40:17.584Z,7.03
2022-08-03T17:42:50.709Z,9.13
2022-08-03T17:45:18.758Z,12.38
2022-08-03T17:47:57.782Z,15.43
2022-08-03T17:50:34.535Z,7.65
2022-08-03T17:53:15.680Z,8.07
2022-08-03T17:56:40.270Z,10.93
2022-08-03T17:59:50.331Z,13.23
2022-08-03T18:02:57.064Z,6.50
2022-08-03T18:06:12.054Z,10.55
2022-08-03T18:08:27.623Z,4.32
2022-08-03T18:11:03.513Z,5.43
2022-08-03T18:13:53.292Z,11.47
2022-08-03T18:16:37.927Z,14.10
2022-08-03T18:19:09.532Z,6.22
2022-08-03T18:22:03.211Z,7.88
2022-08-03T18:24:30.152Z,5.13
2022-08-03T18:26:58.917Z,6.53
2022-08-03T18:29:27.569Z,11.40
2022-08-03T18:32:03.214Z,15.05
2022-08-03T18:34:34.226Z,9.77
2022-08-03T18:37:07.431Z,6.22
2022-08-03T18:39:38.989Z,5.83
2022-08-03T18:42:19.423Z,15.03
2022-08-03T18:44:54.048Z,8.52
2022-08-03T18:47:51.705Z,6.22
2022-08-03T18:50:35.765Z,6.43
2022-08-03T18:53:16.629Z,6.07
2022-08-03T18:56:01.722Z,8.03
2022-08-03T18:58:45.570Z,10.30
2022-08-03T19:02:00.946Z,9.75
2022-08-03T19:04:33.239Z,6.70
2022-08-03T19:07:09.483Z,11.27
2022-08-03T19:09:39.745Z,8.40
2022-08-03T19:12:30.983Z,11.87
2022-08-03T19:15:06.546Z,7.78
2022-08-03T19:17:50.227Z,7.65
2022-08-03T19:20:25.506Z,8.13
2022-08-03T19:22:53.954Z,8.48
2022-08-03T19:25:34.308Z,6.13
2022-08-03T19:28:06.147Z,7.80
2022-08-03T19:30:53.272Z,8.27
2022-08-03T19:33:20.755Z,5.80
2022-08-03T19:35:55.274Z,6.22
2022-08-03T19:41:17.705Z,5.15
2022-08-03T19:43:57.624Z,13.40
2022-08-03T19:46:31.718Z,5.40
2022-08-03T19:49:15.330Z,5.53
2022-08-03T19:52:01.798Z,9.47
2022-08-03T19:54:53.266Z,6.75
2022-08-03T19:57:25.041Z,7.45
2022-08-03T19:59:54.924Z,9.05
2022-08-03T20:02:27.250Z,7.65
2022-08-03T20:04:57.355Z,7.73
2022-08-03T20:07:26.147Z,7.45
2022-08-03T20:09:56.416Z,5.53
2022-08-03T20:12:27.457Z,7.57
2022-08-03T20:14:59.942Z,7.35
2022-08-03T20:17:55.396Z,7.20
2022-08-03T20:20:25.872Z,5.20
2022-08-03T20:22:57.520Z,17.80
2022-08-03T20:25:38.548Z,8.20
2022-08-03T20:28:15.317Z,7.00
2022-08-03T20:30:46.454Z,15.38
2022-08-03T20:33:18.232Z,7.30
2022-08-03T20:35:48.923Z,9.85
2022-08-03T20:38:17.663Z,9.40
2022-08-03T20:40:48.583Z,7.45
2022-08-03T20:43:16.769Z,4.10
2022-08-03T20:46:00.267Z,8.13
2022-08-03T20:48:36.975Z,5.88
2022-08-03T20:51:19.560Z,6.90
2022-08-03T20:53:59.615Z,8.90
2022-08-03T20:56:33.533Z,8.85
2022-08-03T20:59:06.400Z,8.33
2022-08-03T21:01:36.399Z,6.28
2022-08-03T21:04:06.943Z,11.45
2022-08-03T21:06:41.847Z,12.10
2022-08-03T21:09:18.855Z,14.35
2022-08-03T21:11:51.479Z,11.93
2022-08-03T21:13:02.596Z,8.73
2022-08-03T21:14:49.073Z,9.40
2022-08-03T21:17:39.274Z,13.40
2022-08-03T21:20:08.787Z,13.55
2022-08-03T21:22:38.428Z,8.80
2022-08-03T21:25:09.337Z,11.57
2022-08-03T21:27:36.847Z,10.30
2022-08-03T21:30:09.612Z,17.63
2022-08-03T21:32:40.184Z,10.48
2022-08-03T21:35:10.779Z,11.02
2022-08-03T21:37:39.727Z,12.52
2022-08-03T21:40:08.637Z,14.73
2022-08-03T21:42:35.649Z,6.95
2022-08-03T21:45:07.147Z,8.75
2022-08-03T21:47:38.192Z,5.15
2022-08-03T21:50:09.737Z,8.75
2022-08-03T21:52:43.634Z,14.20
2022-08-03T21:55:18.640Z,11.98
2022-08-03T21:57:52.284Z,17.42
2022-08-03T22:00:21.160Z,11.00
2022-08-03T22:02:54.593Z,12.25
2022-08-03T22:05:43.648Z,6.43
2022-08-03T22:08:13.611Z,5.10
2022-08-03T22:10:43.547Z,7.05
2022-08-03T22:13:12.662Z,10.77
2022-08-03T22:15:39.703Z,6.47
2022-08-03T22:18:06.752Z,10.23
2022-08-03T22:20:33.968Z,5.38
2022-08-03T22:23:03.165Z,8.85
2022-08-03T22:25:35.987Z,10.55
2022-08-03T22:28:11.999Z,13.10
2022-08-03T22:30:40.696Z,9.33
2022-08-03T22:33:11.553Z,7.05
2022-08-03T22:35:48.234Z,8.68
2022-08-03T22:38:16.255Z,6.30
2022-08-03T22:40:43.842Z,8.32
2022-08-03T22:43:10.867Z,9.10
2022-08-03T22:46:06.415Z,6.82
2022-08-03T22:48:27.816Z,9.10
2022-08-03T22:50:56.193Z,9.25
2022-08-03T22:53:23.096Z,6.43
2022-08-03T22:55:51.452Z,10.90
2022-08-03T22:58:20.971Z,3.95
2022-08-03T23:00:53.677Z,6.55
2022-08-03T23:04:00.775Z,5.25
2022-08-03T23:06:16.300Z,5.85
2022-08-03T23:08:45.487Z,6.37
2022-08-03T23:11:14.503Z,7.78
2022-08-03T23:13:41.907Z,9.50
2022-08-03T23:16:09.516Z,8.50
2022-08-03T23:18:39.512Z,5.55
2022-08-03T23:21:11.585Z,8.67
2022-08-03T23:23:44.137Z,6.60
2022-08-03T23:26:13.288Z,10.75
2022-08-03T23:28:41.480Z,7.82
2022-08-03T23:31:08.488Z,7.50
2022-08-03T23:33:38.921Z,4.03
2022-08-03T23:36:28.844Z,6.22
2022-08-03T23:38:54.498Z,11.23
2022-08-03T23:41:22.177Z,4.47
2022-08-03T23:43:54.150Z,7.75
2022-08-03T23:46:25.928Z,8.60
2022-08-03T23:48:53.813Z,6.25
2022-08-03T23:51:26.515Z,18.35
2022-08-03T23:54:12.939Z,7.25
2022-08-03T23:56:49.367Z,8.93
2022-08-03T23:59:47.427Z,13.73
